sensor_id;sensor_type;location;lat;lon;timestamp;P1;durP1;ratioP1;P2;durP2;ratioP2
33491;SDS011;20010;51.488;7.232;2023-05-07T00:01:13;13.13;;;11.95;;
33491;SDS011;20010;51.488;7.232;2023-05-07T00:03:40;14.82;;;13.55;;
33491;SDS011;20010;51.488;7.232;2023-05-07T00:06:08;14.88;;;13.57;;
33491;SDS011;20010;51.488;7.232;2023-05-07T00:08:34;14.88;;;13.57;;
33491;SDS011;20010;51.488;7.232;2023-05-07T00:11:01;14.20;;;12.98;;
33491;SDS011;20010;51.488;7.232;2023-05-07T00:13:28;14.80;;;13.50;;
33491;SDS011;20010;51.488;7.232;2023-05-07T00:15:56;15.85;;;14.45;;
33491;SDS011;20010;51.488;7.232;2023-05-07T00:18:23;15.40;;;14.10;;
33491;SDS011;20010;51.488;7.232;2023-05-07T00:20:50;14.40;;;13.20;;
33491;SDS011;20010;51.488;7.232;2023-05-07T00:23:16;15.55;;;14.23;;
33491;SDS011;20010;51.488;7.232;2023-05-07T00:25:43;16.08;;;14.68;;
33491;SDS011;20010;51.488;7.232;2023-05-07T00:28:09;15.70;;;14.32;;
33491;SDS011;20010;51.488;7.232;2023-05-07T00:30:36;16.02;;;14.73;;
33491;SDS011;20010;51.488;7.232;2023-05-07T00:33:02;14.90;;;13.70;;
33491;SDS011;20010;51.488;7.232;2023-05-07T00:35:29;15.45;;;14.05;;
33491;SDS011;20010;51.488;7.232;2023-05-07T00:37:56;15.50;;;14.15;;
33491;SDS011;20010;51.488;7.232;2023-05-07T00:40:23;14.02;;;12.82;;
33491;SDS011;20010;51.488;7.232;2023-05-07T00:42:50;15.93;;;14.55;;
33491;SDS011;20010;51.488;7.232;2023-05-07T00:45:22;15.93;;;14.55;;
33491;SDS011;20010;51.488;7.232;2023-05-07T00:47:55;17.27;;;15.52;;
33491;SDS011;20010;51.488;7.232;2023-05-07T00:50:23;16.58;;;15.02;;
33491;SDS011;20010;51.488;7.232;2023-05-07T00:52:50;15.88;;;14.48;;
33491;SDS011;20010;51.488;7.232;2023-05-07T00:55:17;16.00;;;14.70;;
33491;SDS011;20010;51.488;7.232;2023-05-07T00:57:44;18.77;;;16.27;;
33491;SDS011;20010;51.488;7.232;2023-05-07T01:00:11;16.85;;;15.18;;
33491;SDS011;20010;51.488;7.232;2023-05-07T01:02:39;17.48;;;15.93;;
33491;SDS011;20010;51.488;7.232;2023-05-07T01:05:07;14.80;;;13.60;;
33491;SDS011;20010;51.488;7.232;2023-05-07T01:07:36;15.18;;;13.88;;
33491;SDS011;20010;51.488;7.232;2023-05-07T01:10:04;16.33;;;14.82;;
33491;SDS011;20010;51.488;7.232;2023-05-07T01:12:31;14.80;;;13.65;;
33491;SDS011;20010;51.488;7.232;2023-05-07T01:14:57;15.60;;;14.20;;
33491;SDS011;20010;51.488;7.232;2023-05-07T01:17:24;15.23;;;13.93;;
33491;SDS011;20010;51.488;7.232;2023-05-07T01:19:51;15.90;;;14.52;;
33491;SDS011;20010;51.488;7.232;2023-05-07T01:22:29;16.70;;;15.40;;
33491;SDS011;20010;51.488;7.232;2023-05-07T01:24:58;17.83;;;16.30;;
33491;SDS011;20010;51.488;7.232;2023-05-07T01:27:25;18.00;;;16.38;;
33491;SDS011;20010;51.488;7.232;2023-05-07T01:29:52;19.83;;;17.83;;
33491;SDS011;20010;51.488;7.232;2023-05-07T01:32:20;18.33;;;16.65;;
33491;SDS011;20010;51.488;7.232;2023-05-07T01:34:50;16.52;;;15.02;;
33491;SDS011;20010;51.488;7.232;2023-05-07T01:37:17;18.08;;;16.52;;
33491;SDS011;20010;51.488;7.232;2023-05-07T01:39:44;17.13;;;15.60;;
33491;SDS011;20010;51.488;7.232;2023-05-07T01:42:13;17.15;;;15.73;;
33491;SDS011;20010;51.488;7.232;2023-05-07T01:44:39;20.15;;;18.38;;
33491;SDS011;20010;51.488;7.232;2023-05-07T01:47:06;17.67;;;16.13;;
33491;SDS011;20010;51.488;7.232;2023-05-07T01:49:33;17.17;;;15.70;;
33491;SDS011;20010;51.488;7.232;2023-05-07T01:51:59;16.88;;;15.20;;
33491;SDS011;20010;51.488;7.232;2023-05-07T01:54:26;17.90;;;16.35;;
33491;SDS011;20010;51.488;7.232;2023-05-07T01:56:56;16.83;;;15.48;;
33491;SDS011;20010;51.488;7.232;2023-05-07T01:59:23;16.98;;;15.43;;
33491;SDS011;20010;51.488;7.232;2023-05-07T02:01:50;18.75;;;16.92;;
33491;SDS011;20010;51.488;7.232;2023-05-07T02:04:16;18.02;;;16.52;;
33491;SDS011;20010;51.488;7.232;2023-05-07T02:06:43;19.10;;;17.40;;
33491;SDS011;20010;51.488;7.232;2023-05-07T02:09:10;18.30;;;16.80;;
33491;SDS011;20010;51.488;7.232;2023-05-07T02:11:37;19.92;;;17.85;;
33491;SDS011;20010;51.488;7.232;2023-05-07T02:14:03;19.17;;;17.38;;
33491;SDS011;20010;51.488;7.232;2023-05-07T02:16:30;18.08;;;16.42;;
33491;SDS011;20010;51.488;7.232;2023-05-07T02:18:57;17.70;;;16.17;;
33491;SDS011;20010;51.488;7.232;2023-05-07T02:21:24;18.52;;;16.95;;
33491;SDS011;20010;51.488;7.232;2023-05-07T02:23:51;19.83;;;18.02;;
33491;SDS011;20010;51.488;7.232;2023-05-07T02:26:18;19.05;;;17.55;;
33491;SDS011;20010;51.488;7.232;2023-05-07T02:28:44;20.85;;;18.90;;
33491;SDS011;20010;51.488;7.232;2023-05-07T02:31:11;19.67;;;18.08;;
33491;SDS011;20010;51.488;7.232;2023-05-07T02:33:37;19.65;;;17.95;;
33491;SDS011;20010;51.488;7.232;2023-05-07T02:36:10;19.35;;;17.67;;
33491;SDS011;20010;51.488;7.232;2023-05-07T02:38:37;19.92;;;18.20;;
33491;SDS011;20010;51.488;7.232;2023-05-07T02:41:04;19.85;;;18.17;;
33491;SDS011;20010;51.488;7.232;2023-05-07T02:43:31;21.50;;;19.73;;
33491;SDS011;20010;51.488;7.232;2023-05-07T02:46:04;19.05;;;17.25;;
33491;SDS011;20010;51.488;7.232;2023-05-07T02:48:32;19.70;;;18.05;;
33491;SDS011;20010;51.488;7.232;2023-05-07T02:50:59;19.15;;;17.65;;
33491;SDS011;20010;51.488;7.232;2023-05-07T02:53:26;21.35;;;19.38;;
33491;SDS011;20010;51.488;7.232;2023-05-07T02:55:53;22.13;;;20.15;;
33491;SDS011;20010;51.488;7.232;2023-05-07T02:58:20;19.77;;;17.88;;
33491;SDS011;20010;51.488;7.232;2023-05-07T03:00:46;20.85;;;19.02;;
33491;SDS011;20010;51.488;7.232;2023-05-07T03:03:13;17.90;;;16.30;;
33491;SDS011;20010;51.488;7.232;2023-05-07T03:05:40;19.77;;;17.95;;
33491;SDS011;20010;51.488;7.232;2023-05-07T03:08:07;18.40;;;16.77;;
33491;SDS011;20010;51.488;7.232;2023-05-07T03:10:34;19.20;;;17.50;;
33491;SDS011;20010;51.488;7.232;2023-05-07T03:13:01;19.23;;;17.60;;
33491;SDS011;20010;51.488;7.232;2023-05-07T03:15:29;19.20;;;17.60;;
33491;SDS011;20010;51.488;7.232;2023-05-07T03:17:55;20.67;;;18.88;;
33491;SDS011;20010;51.488;7.232;2023-05-07T03:20:22;19.83;;;18.13;;
33491;SDS011;20010;51.488;7.232;2023-05-07T03:22:49;20.98;;;19.17;;
33491;SDS011;20010;51.488;7.232;2023-05-07T03:25:16;22.98;;;20.85;;
33491;SDS011;20010;51.488;7.232;2023-05-07T03:27:42;21.08;;;19.13;;
33491;SDS011;20010;51.488;7.232;2023-05-07T03:30:09;21.23;;;19.42;;
33491;SDS011;20010;51.488;7.232;2023-05-07T03:32:37;24.38;;;22.15;;
33491;SDS011;20010;51.488;7.232;2023-05-07T03:35:04;20.33;;;18.63;;
33491;SDS011;20010;51.488;7.232;2023-05-07T03:37:31;19.85;;;18.20;;
33491;SDS011;20010;51.488;7.232;2023-05-07T03:39:58;19.95;;;18.27;;
33491;SDS011;20010;51.488;7.232;2023-05-07T03:42:24;21.45;;;19.45;;
33491;SDS011;20010;51.488;7.232;2023-05-07T03:44:51;22.05;;;19.92;;
33491;SDS011;20010;51.488;7.232;2023-05-07T03:47:17;20.63;;;18.92;;
33491;SDS011;20010;51.488;7.232;2023-05-07T03:49:44;21.42;;;19.27;;
33491;SDS011;20010;51.488;7.232;2023-05-07T03:52:11;23.27;;;21.27;;
33491;SDS011;20010;51.488;7.232;2023-05-07T03:54:37;20.90;;;19.10;;
33491;SDS011;20010;51.488;7.232;2023-05-07T03:57:04;21.10;;;19.30;;
33491;SDS011;20010;51.488;7.232;2023-05-07T03:59:31;23.38;;;21.33;;
33491;SDS011;20010;51.488;7.232;2023-05-07T04:01:57;21.95;;;19.98;;
33491;SDS011;20010;51.488;7.232;2023-05-07T04:04:24;23.17;;;21.02;;
33491;SDS011;20010;51.488;7.232;2023-05-07T04:06:51;23.15;;;21.15;;
33491;SDS011;20010;51.488;7.232;2023-05-07T04:09:17;23.67;;;21.50;;
33491;SDS011;20010;51.488;7.232;2023-05-07T04:11:44;23.65;;;21.48;;
33491;SDS011;20010;51.488;7.232;2023-05-07T04:14:11;21.90;;;19.83;;
33491;SDS011;20010;51.488;7.232;2023-05-07T04:16:38;23.52;;;21.23;;
33491;SDS011;20010;51.488;7.232;2023-05-07T04:19:04;22.88;;;20.85;;
33491;SDS011;20010;51.488;7.232;2023-05-07T04:21:31;23.98;;;21.60;;
33491;SDS011;20010;51.488;7.232;2023-05-07T04:23:58;23.88;;;21.75;;
33491;SDS011;20010;51.488;7.232;2023-05-07T04:26:24;23.05;;;20.88;;
33491;SDS011;20010;51.488;7.232;2023-05-07T04:28:51;22.50;;;20.40;;
33491;SDS011;20010;51.488;7.232;2023-05-07T04:31:17;26.85;;;24.25;;
33491;SDS011;20010;51.488;7.232;2023-05-07T04:33:44;27.67;;;24.77;;
33491;SDS011;20010;51.488;7.232;2023-05-07T04:36:11;26.92;;;24.30;;
33491;SDS011;20010;51.488;7.232;2023-05-07T04:38:38;25.00;;;22.70;;
33491;SDS011;20010;51.488;7.232;2023-05-07T04:41:05;26.27;;;23.65;;
33491;SDS011;20010;51.488;7.232;2023-05-07T04:43:32;28.85;;;26.05;;
33491;SDS011;20010;51.488;7.232;2023-05-07T04:45:59;21.17;;;19.08;;
33491;SDS011;20010;51.488;7.232;2023-05-07T04:48:25;23.95;;;21.55;;
33491;SDS011;20010;51.488;7.232;2023-05-07T04:50:52;22.85;;;20.48;;
33491;SDS011;20010;51.488;7.232;2023-05-07T04:53:19;19.92;;;18.00;;
33491;SDS011;20010;51.488;7.232;2023-05-07T04:55:45;19.27;;;17.58;;
33491;SDS011;20010;51.488;7.232;2023-05-07T04:58:12;22.08;;;19.75;;
33491;SDS011;20010;51.488;7.232;2023-05-07T05:00:39;20.10;;;18.30;;
33491;SDS011;20010;51.488;7.232;2023-05-07T05:03:06;20.20;;;18.50;;
33491;SDS011;20010;51.488;7.232;2023-05-07T05:05:33;22.45;;;20.35;;
33491;SDS011;20010;51.488;7.232;2023-05-07T05:08:00;22.63;;;20.52;;
33491;SDS011;20010;51.488;7.232;2023-05-07T05:10:26;19.20;;;17.60;;
33491;SDS011;20010;51.488;7.232;2023-05-07T05:12:53;18.58;;;16.85;;
33491;SDS011;20010;51.488;7.232;2023-05-07T05:15:19;18.20;;;16.48;;
33491;SDS011;20010;51.488;7.232;2023-05-07T05:17:46;19.75;;;17.95;;
33491;SDS011;20010;51.488;7.232;2023-05-07T05:20:12;19.35;;;17.63;;
33491;SDS011;20010;51.488;7.232;2023-05-07T05:22:41;16.63;;;15.23;;
33491;SDS011;20010;51.488;7.232;2023-05-07T05:25:08;17.40;;;15.90;;
33491;SDS011;20010;51.488;7.232;2023-05-07T05:27:34;15.57;;;14.10;;
33491;SDS011;20010;51.488;7.232;2023-05-07T05:30:02;16.50;;;14.93;;
33491;SDS011;20010;51.488;7.232;2023-05-07T05:32:29;16.65;;;14.93;;
33491;SDS011;20010;51.488;7.232;2023-05-07T05:34:56;15.18;;;13.80;;
33491;SDS011;20010;51.488;7.232;2023-05-07T05:37:22;15.45;;;14.18;;
33491;SDS011;20010;51.488;7.232;2023-05-07T05:39:49;15.65;;;14.35;;
33491;SDS011;20010;51.488;7.232;2023-05-07T05:42:16;15.05;;;13.95;;
33491;SDS011;20010;51.488;7.232;2023-05-07T05:44:42;15.18;;;13.68;;
33491;SDS011;20010;51.488;7.232;2023-05-07T05:47:09;14.23;;;13.07;;
33491;SDS011;20010;51.488;7.232;2023-05-07T05:49:35;11.98;;;11.07;;
33491;SDS011;20010;51.488;7.232;2023-05-07T05:52:02;11.68;;;10.50;;
33491;SDS011;20010;51.488;7.232;2023-05-07T05:54:29;12.10;;;11.07;;
33491;SDS011;20010;51.488;7.232;2023-05-07T05:56:55;10.90;;;9.88;;
33491;SDS011;20010;51.488;7.232;2023-05-07T05:59:22;11.70;;;10.70;;
33491;SDS011;20010;51.488;7.232;2023-05-07T06:01:49;10.73;;;9.93;;
33491;SDS011;20010;51.488;7.232;2023-05-07T06:04:16;9.90;;;9.10;;
33491;SDS011;20010;51.488;7.232;2023-05-07T06:06:42;7.88;;;7.38;;
33491;SDS011;20010;51.488;7.232;2023-05-07T06:09:09;11.57;;;10.27;;
33491;SDS011;20010;51.488;7.232;2023-05-07T06:11:35;9.80;;;9.00;;
33491;SDS011;20010;51.488;7.232;2023-05-07T06:14:02;7.75;;;7.15;;
33491;SDS011;20010;51.488;7.232;2023-05-07T06:16:29;9.15;;;8.45;;
33491;SDS011;20010;51.488;7.232;2023-05-07T06:18:55;8.48;;;7.80;;
33491;SDS011;20010;51.488;7.232;2023-05-07T06:21:22;8.63;;;7.85;;
33491;SDS011;20010;51.488;7.232;2023-05-07T06:23:48;7.97;;;7.28;;
33491;SDS011;20010;51.488;7.232;2023-05-07T06:26:15;7.75;;;7.15;;
33491;SDS011;20010;51.488;7.232;2023-05-07T06:28:41;8.20;;;7.35;;
33491;SDS011;20010;51.488;7.232;2023-05-07T06:31:14;6.85;;;6.32;;
33491;SDS011;20010;51.488;7.232;2023-05-07T06:33:43;7.32;;;6.68;;
33491;SDS011;20010;51.488;7.232;2023-05-07T06:36:10;6.65;;;6.15;;
33491;SDS011;20010;51.488;7.232;2023-05-07T06:38:37;7.25;;;6.65;;
33491;SDS011;20010;51.488;7.232;2023-05-07T06:41:05;6.60;;;6.00;;
33491;SDS011;20010;51.488;7.232;2023-05-07T06:43:32;6.57;;;5.97;;
33491;SDS011;20010;51.488;7.232;2023-05-07T06:45:59;9.40;;;6.25;;
33491;SDS011;20010;51.488;7.232;2023-05-07T06:48:25;6.75;;;6.05;;
33491;SDS011;20010;51.488;7.232;2023-05-07T06:50:52;7.13;;;6.38;;
33491;SDS011;20010;51.488;7.232;2023-05-07T06:53:19;6.57;;;5.80;;
33491;SDS011;20010;51.488;7.232;2023-05-07T06:55:45;6.32;;;5.82;;
33491;SDS011;20010;51.488;7.232;2023-05-07T06:58:12;5.93;;;5.53;;
33491;SDS011;20010;51.488;7.232;2023-05-07T07:00:39;5.82;;;5.50;;
33491;SDS011;20010;51.488;7.232;2023-05-07T07:03:07;6.28;;;5.88;;
33491;SDS011;20010;51.488;7.232;2023-05-07T07:05:34;6.13;;;5.63;;
33491;SDS011;20010;51.488;7.232;2023-05-07T07:08:00;6.90;;;6.20;;
33491;SDS011;20010;51.488;7.232;2023-05-07T07:10:27;5.63;;;5.22;;
33491;SDS011;20010;51.488;7.232;2023-05-07T07:12:53;5.80;;;5.40;;
33491;SDS011;20010;51.488;7.232;2023-05-07T07:15:20;6.10;;;5.72;;
33491;SDS011;20010;51.488;7.232;2023-05-07T07:17:47;6.65;;;5.97;;
33491;SDS011;20010;51.488;7.232;2023-05-07T07:20:14;6.00;;;5.50;;
33491;SDS011;20010;51.488;7.232;2023-05-07T07:22:41;6.05;;;5.40;;
33491;SDS011;20010;51.488;7.232;2023-05-07T07:25:08;5.60;;;5.20;;
33491;SDS011;20010;51.488;7.232;2023-05-07T07:27:36;6.13;;;5.65;;
33491;SDS011;20010;51.488;7.232;2023-05-07T07:30:03;6.15;;;5.78;;
33491;SDS011;20010;51.488;7.232;2023-05-07T07:32:30;6.63;;;6.00;;
33491;SDS011;20010;51.488;7.232;2023-05-07T07:35:00;6.50;;;6.00;;
33491;SDS011;20010;51.488;7.232;2023-05-07T07:37:33;6.55;;;5.90;;
33491;SDS011;20010;51.488;7.232;2023-05-07T07:40:16;6.43;;;6.00;;
33491;SDS011;20010;51.488;7.232;2023-05-07T07:42:52;6.80;;;6.30;;
33491;SDS011;20010;51.488;7.232;2023-05-07T07:45:33;6.50;;;6.00;;
33491;SDS011;20010;51.488;7.232;2023-05-07T07:48:10;6.40;;;5.90;;
33491;SDS011;20010;51.488;7.232;2023-05-07T07:50:56;6.38;;;5.88;;
33491;SDS011;20010;51.488;7.232;2023-05-07T07:53:25;7.47;;;6.88;;
33491;SDS011;20010;51.488;7.232;2023-05-07T07:55:52;6.95;;;6.45;;
33491;SDS011;20010;51.488;7.232;2023-05-07T07:58:24;6.97;;;6.47;;
33491;SDS011;20010;51.488;7.232;2023-05-07T08:00:51;6.90;;;6.40;;
33491;SDS011;20010;51.488;7.232;2023-05-07T08:03:22;7.38;;;6.68;;
33491;SDS011;20010;51.488;7.232;2023-05-07T08:05:49;6.80;;;6.22;;
33491;SDS011;20010;51.488;7.232;2023-05-07T08:08:17;6.30;;;5.85;;
33491;SDS011;20010;51.488;7.232;2023-05-07T08:10:43;6.55;;;6.15;;
33491;SDS011;20010;51.488;7.232;2023-05-07T08:13:10;8.88;;;8.10;;
33491;SDS011;20010;51.488;7.232;2023-05-07T08:15:37;8.15;;;7.35;;
33491;SDS011;20010;51.488;7.232;2023-05-07T08:18:04;7.95;;;7.15;;
33491;SDS011;20010;51.488;7.232;2023-05-07T08:20:30;7.95;;;7.10;;
33491;SDS011;20010;51.488;7.232;2023-05-07T08:22:57;6.72;;;6.22;;
33491;SDS011;20010;51.488;7.232;2023-05-07T08:25:23;8.20;;;7.45;;
33491;SDS011;20010;51.488;7.232;2023-05-07T08:27:50;6.55;;;5.90;;
33491;SDS011;20010;51.488;7.232;2023-05-07T08:30:16;7.38;;;6.88;;
33491;SDS011;20010;51.488;7.232;2023-05-07T08:32:43;7.88;;;7.07;;
33491;SDS011;20010;51.488;7.232;2023-05-07T08:35:10;8.65;;;7.80;;
33491;SDS011;20010;51.488;7.232;2023-05-07T08:37:37;7.68;;;7.18;;
33491;SDS011;20010;51.488;7.232;2023-05-07T08:40:03;7.72;;;7.13;;
33491;SDS011;20010;51.488;7.232;2023-05-07T08:45:04;8.00;;;6.82;;
33491;SDS011;20010;51.488;7.232;2023-05-07T08:47:37;8.75;;;7.90;;
33491;SDS011;20010;51.488;7.232;2023-05-07T08:50:06;7.93;;;7.20;;
33491;SDS011;20010;51.488;7.232;2023-05-07T08:52:33;7.25;;;6.65;;
33491;SDS011;20010;51.488;7.232;2023-05-07T08:55:00;8.18;;;6.95;;
33491;SDS011;20010;51.488;7.232;2023-05-07T08:57:28;7.13;;;6.43;;
33491;SDS011;20010;51.488;7.232;2023-05-07T08:59:56;6.38;;;5.97;;
33491;SDS011;20010;51.488;7.232;2023-05-07T09:02:22;9.60;;;8.60;;
33491;SDS011;20010;51.488;7.232;2023-05-07T09:04:49;6.93;;;6.50;;
33491;SDS011;20010;51.488;7.232;2023-05-07T09:07:17;7.47;;;6.78;;
33491;SDS011;20010;51.488;7.232;2023-05-07T09:09:44;6.20;;;5.70;;
33491;SDS011;20010;51.488;7.232;2023-05-07T09:12:10;7.40;;;6.70;;
33491;SDS011;20010;51.488;7.232;2023-05-07T09:14:37;6.45;;;6.05;;
33491;SDS011;20010;51.488;7.232;2023-05-07T09:17:04;6.63;;;6.13;;
33491;SDS011;20010;51.488;7.232;2023-05-07T09:19:31;6.90;;;6.30;;
33491;SDS011;20010;51.488;7.232;2023-05-07T09:22:01;7.43;;;6.53;;
33491;SDS011;20010;51.488;7.232;2023-05-07T09:24:28;7.93;;;7.15;;
33491;SDS011;20010;51.488;7.232;2023-05-07T09:27:03;7.43;;;6.82;;
33491;SDS011;20010;51.488;7.232;2023-05-07T09:29:30;8.30;;;7.70;;
33491;SDS011;20010;51.488;7.232;2023-05-07T09:32:01;7.43;;;6.93;;
33491;SDS011;20010;51.488;7.232;2023-05-07T09:34:29;7.55;;;6.95;;
33491;SDS011;20010;51.488;7.232;2023-05-07T09:37:02;7.00;;;6.50;;
33491;SDS011;20010;51.488;7.232;2023-05-07T09:42:09;7.57;;;7.07;;
33491;SDS011;20010;51.488;7.232;2023-05-07T09:44:40;9.45;;;8.65;;
33491;SDS011;20010;51.488;7.232;2023-05-07T09:47:07;7.95;;;7.25;;
33491;SDS011;20010;51.488;7.232;2023-05-07T09:49:35;8.32;;;7.72;;
33491;SDS011;20010;51.488;7.232;2023-05-07T09:52:03;8.32;;;7.55;;
33491;SDS011;20010;51.488;7.232;2023-05-07T09:54:36;8.52;;;7.72;;
33491;SDS011;20010;51.488;7.232;2023-05-07T09:57:06;8.38;;;7.75;;
33491;SDS011;20010;51.488;7.232;2023-05-07T09:59:33;7.40;;;6.70;;
33491;SDS011;20010;51.488;7.232;2023-05-07T10:02:00;8.10;;;7.40;;
33491;SDS011;20010;51.488;7.232;2023-05-07T10:04:30;7.53;;;6.97;;
33491;SDS011;20010;51.488;7.232;2023-05-07T10:06:57;7.60;;;6.97;;
33491;SDS011;20010;51.488;7.232;2023-05-07T10:09:25;8.15;;;6.10;;
33491;SDS011;20010;51.488;7.232;2023-05-07T10:11:52;6.57;;;6.07;;
33491;SDS011;20010;51.488;7.232;2023-05-07T10:14:20;7.43;;;6.72;;
33491;SDS011;20010;51.488;7.232;2023-05-07T10:16:47;8.63;;;7.80;;
33491;SDS011;20010;51.488;7.232;2023-05-07T10:19:14;7.07;;;6.50;;
33491;SDS011;20010;51.488;7.232;2023-05-07T10:21:48;6.13;;;5.55;;
33491;SDS011;20010;51.488;7.232;2023-05-07T10:24:24;5.75;;;5.18;;
33491;SDS011;20010;51.488;7.232;2023-05-07T10:26:53;6.60;;;6.10;;
33491;SDS011;20010;51.488;7.232;2023-05-07T10:34:45;6.57;;;5.97;;
33491;SDS011;20010;51.488;7.232;2023-05-07T10:37:13;6.28;;;5.85;;
33491;SDS011;20010;51.488;7.232;2023-05-07T10:39:41;5.80;;;5.38;;
33491;SDS011;20010;51.488;7.232;2023-05-07T10:42:08;7.30;;;6.55;;
33491;SDS011;20010;51.488;7.232;2023-05-07T10:44:35;6.07;;;5.68;;
33491;SDS011;20010;51.488;7.232;2023-05-07T10:47:10;6.70;;;6.20;;
33491;SDS011;20010;51.488;7.232;2023-05-07T10:52:20;7.43;;;6.78;;
33491;SDS011;20010;51.488;7.232;2023-05-07T10:55:18;6.47;;;5.97;;
33491;SDS011;20010;51.488;7.232;2023-05-07T10:57:43;7.55;;;7.00;;
33491;SDS011;20010;51.488;7.232;2023-05-07T11:00:56;6.93;;;6.43;;
33491;SDS011;20010;51.488;7.232;2023-05-07T11:05:28;6.65;;;6.15;;
33491;SDS011;20010;51.488;7.232;2023-05-07T11:07:57;10.18;;;6.20;;
33491;SDS011;20010;51.488;7.232;2023-05-07T11:13:13;6.20;;;5.68;;
33491;SDS011;20010;51.488;7.232;2023-05-07T11:15:44;6.63;;;6.03;;
33491;SDS011;20010;51.488;7.232;2023-05-07T11:18:15;6.50;;;6.00;;
33491;SDS011;20010;51.488;7.232;2023-05-07T11:25:58;6.80;;;6.38;;
33491;SDS011;20010;51.488;7.232;2023-05-07T11:28:30;7.18;;;6.60;;
33491;SDS011;20010;51.488;7.232;2023-05-07T11:33:23;8.80;;;7.97;;
33491;SDS011;20010;51.488;7.232;2023-05-07T11:35:53;7.83;;;7.33;;
33491;SDS011;20010;51.488;7.232;2023-05-07T11:38:19;9.50;;;8.10;;
33491;SDS011;20010;51.488;7.232;2023-05-07T11:43:20;8.93;;;8.23;;
33491;SDS011;20010;51.488;7.232;2023-05-07T11:45:47;8.43;;;7.70;;
33491;SDS011;20010;51.488;7.232;2023-05-07T11:48:14;8.48;;;7.38;;
33491;SDS011;20010;51.488;7.232;2023-05-07T11:50:51;7.90;;;7.20;;
33491;SDS011;20010;51.488;7.232;2023-05-07T11:53:19;8.95;;;8.20;;
33491;SDS011;20010;51.488;7.232;2023-05-07T11:55:46;9.52;;;8.70;;
33491;SDS011;20010;51.488;7.232;2023-05-07T11:58:18;9.05;;;8.27;;
33491;SDS011;20010;51.488;7.232;2023-05-07T12:00:53;8.43;;;7.75;;
33491;SDS011;20010;51.488;7.232;2023-05-07T12:03:20;9.02;;;8.30;;
33491;SDS011;20010;51.488;7.232;2023-05-07T12:05:47;8.85;;;8.02;;
33491;SDS011;20010;51.488;7.232;2023-05-07T12:08:14;8.48;;;7.88;;
33491;SDS011;20010;51.488;7.232;2023-05-07T12:10:42;9.30;;;8.40;;
33491;SDS011;20010;51.488;7.232;2023-05-07T12:13:19;11.15;;;7.85;;
33491;SDS011;20010;51.488;7.232;2023-05-07T12:15:52;9.40;;;8.70;;
33491;SDS011;20010;51.488;7.232;2023-05-07T12:18:20;12.27;;;11.27;;
33491;SDS011;20010;51.488;7.232;2023-05-07T12:20:47;10.73;;;9.82;;
33491;SDS011;20010;51.488;7.232;2023-05-07T12:23:14;10.93;;;10.13;;
33491;SDS011;20010;51.488;7.232;2023-05-07T12:25:43;10.40;;;9.60;;
33491;SDS011;20010;51.488;7.232;2023-05-07T12:28:14;12.60;;;10.37;;
33491;SDS011;20010;51.488;7.232;2023-05-07T12:30:42;10.90;;;10.10;;
33491;SDS011;20010;51.488;7.232;2023-05-07T12:33:09;11.05;;;9.88;;
33491;SDS011;20010;51.488;7.232;2023-05-07T12:35:38;9.80;;;8.85;;
33491;SDS011;20010;51.488;7.232;2023-05-07T12:38:12;10.32;;;9.35;;
33491;SDS011;20010;51.488;7.232;2023-05-07T12:43:07;8.70;;;7.93;;
33491;SDS011;20010;51.488;7.232;2023-05-07T12:45:37;14.45;;;13.05;;
33491;SDS011;20010;51.488;7.232;2023-05-07T12:48:07;10.75;;;9.70;;
33491;SDS011;20010;51.488;7.232;2023-05-07T12:50:36;9.20;;;8.50;;
33491;SDS011;20010;51.488;7.232;2023-05-07T12:53:06;8.77;;;7.97;;
33491;SDS011;20010;51.488;7.232;2023-05-07T12:55:47;8.82;;;8.02;;
33491;SDS011;20010;51.488;7.232;2023-05-07T12:58:16;9.82;;;9.13;;
33491;SDS011;20010;51.488;7.232;2023-05-07T13:00:44;10.00;;;9.05;;
33491;SDS011;20010;51.488;7.232;2023-05-07T13:03:11;9.23;;;8.43;;
33491;SDS011;20010;51.488;7.232;2023-05-07T13:05:43;9.43;;;8.63;;
33491;SDS011;20010;51.488;7.232;2023-05-07T13:08:09;9.57;;;8.85;;
33491;SDS011;20010;51.488;7.232;2023-05-07T13:10:36;9.10;;;8.40;;
33491;SDS011;20010;51.488;7.232;2023-05-07T13:13:02;9.38;;;8.48;;
33491;SDS011;20010;51.488;7.232;2023-05-07T13:15:29;9.88;;;9.05;;
33491;SDS011;20010;51.488;7.232;2023-05-07T13:17:56;8.90;;;8.25;;
33491;SDS011;20010;51.488;7.232;2023-05-07T13:20:22;8.82;;;8.23;;
33491;SDS011;20010;51.488;7.232;2023-05-07T13:22:49;8.90;;;8.30;;
33491;SDS011;20010;51.488;7.232;2023-05-07T13:25:15;8.60;;;7.90;;
33491;SDS011;20010;51.488;7.232;2023-05-07T13:27:42;9.50;;;8.80;;
33491;SDS011;20010;51.488;7.232;2023-05-07T13:30:09;8.98;;;8.30;;
33491;SDS011;20010;51.488;7.232;2023-05-07T13:32:36;8.98;;;8.27;;
33491;SDS011;20010;51.488;7.232;2023-05-07T13:35:03;9.25;;;8.32;;
33491;SDS011;20010;51.488;7.232;2023-05-07T13:37:29;9.55;;;8.75;;
33491;SDS011;20010;51.488;7.232;2023-05-07T13:39:56;9.57;;;8.88;;
33491;SDS011;20010;51.488;7.232;2023-05-07T13:42:23;9.25;;;8.55;;
33491;SDS011;20010;51.488;7.232;2023-05-07T13:44:49;9.70;;;8.80;;
33491;SDS011;20010;51.488;7.232;2023-05-07T13:47:16;9.80;;;9.00;;
33491;SDS011;20010;51.488;7.232;2023-05-07T13:49:42;8.63;;;8.02;;
33491;SDS011;20010;51.488;7.232;2023-05-07T13:52:09;7.95;;;7.22;;
33491;SDS011;20010;51.488;7.232;2023-05-07T13:54:35;8.82;;;8.13;;
33491;SDS011;20010;51.488;7.232;2023-05-07T13:57:02;10.25;;;9.45;;
33491;SDS011;20010;51.488;7.232;2023-05-07T13:59:28;8.85;;;8.15;;
33491;SDS011;20010;51.488;7.232;2023-05-07T14:01:55;8.30;;;7.50;;
33491;SDS011;20010;51.488;7.232;2023-05-07T14:04:22;13.45;;;11.40;;
33491;SDS011;20010;51.488;7.232;2023-05-07T14:06:48;9.77;;;8.80;;
33491;SDS011;20010;51.488;7.232;2023-05-07T14:09:15;8.07;;;7.55;;
33491;SDS011;20010;51.488;7.232;2023-05-07T14:11:42;9.40;;;8.70;;
33491;SDS011;20010;51.488;7.232;2023-05-07T14:14:08;8.93;;;8.18;;
33491;SDS011;20010;51.488;7.232;2023-05-07T14:16:38;8.18;;;7.13;;
33491;SDS011;20010;51.488;7.232;2023-05-07T14:19:04;9.07;;;8.48;;
33491;SDS011;20010;51.488;7.232;2023-05-07T14:21:31;9.30;;;8.48;;
33491;SDS011;20010;51.488;7.232;2023-05-07T14:23:58;10.13;;;9.02;;
33491;SDS011;20010;51.488;7.232;2023-05-07T14:26:26;14.40;;;12.85;;
33491;SDS011;20010;51.488;7.232;2023-05-07T14:28:53;9.70;;;8.90;;
33491;SDS011;20010;51.488;7.232;2023-05-07T14:31:21;10.02;;;8.40;;
33491;SDS011;20010;51.488;7.232;2023-05-07T14:33:48;8.57;;;7.90;;
33491;SDS011;20010;51.488;7.232;2023-05-07T14:36:17;8.65;;;7.97;;
33491;SDS011;20010;51.488;7.232;2023-05-07T14:38:46;7.70;;;7.10;;
33491;SDS011;20010;51.488;7.232;2023-05-07T14:41:13;7.45;;;6.88;;
33491;SDS011;20010;51.488;7.232;2023-05-07T14:43:40;7.65;;;6.95;;
33491;SDS011;20010;51.488;7.232;2023-05-07T14:46:07;8.52;;;7.80;;
33491;SDS011;20010;51.488;7.232;2023-05-07T14:48:33;9.20;;;8.32;;
33491;SDS011;20010;51.488;7.232;2023-05-07T14:51:00;8.63;;;8.02;;
33491;SDS011;20010;51.488;7.232;2023-05-07T14:53:26;8.68;;;6.95;;
33491;SDS011;20010;51.488;7.232;2023-05-07T14:55:54;8.02;;;7.32;;
33491;SDS011;20010;51.488;7.232;2023-05-07T14:58:21;8.55;;;7.90;;
33491;SDS011;20010;51.488;7.232;2023-05-07T15:00:47;8.25;;;7.60;;
33491;SDS011;20010;51.488;7.232;2023-05-07T15:03:14;8.63;;;8.02;;
33491;SDS011;20010;51.488;7.232;2023-05-07T15:05:40;8.93;;;8.23;;
33491;SDS011;20010;51.488;7.232;2023-05-07T15:08:08;8.13;;;7.63;;
33491;SDS011;20010;51.488;7.232;2023-05-07T15:10:37;9.40;;;8.60;;